Time;durP1;ratioP1;P1;durP2;ratioP2;P2;SDS_P1;SDS_P2;PMS_P1;PMS_P2;Temp;Humidity;BMP_temperature;BMP_pressure;BME280_temperature;BME280_humidity;BME280_pressure;Samples;Min_cycle;Max_cycle;Signal;HPM_P1;HPM_P2
2021/06/12 00:01:30;;;;;;;;;;;;;;;19.24;65.27;100583.75;5038888;28;772;-39
2021/06/12 00:03:56;;;;;;;;;;;;;;;19.21;65.13;100585.16;5039897;28;807;-40
2021/06/12 00:06:21;;;;;;;;;;;;;;;19.15;65.46;100589.09;5039878;28;848;-40
2021/06/12 00:08:47;;;;;;;;;;;;;;;19.10;65.05;100576.22;5039656;28;803;-49
2021/06/12 00:11:12;;;;;;;;;;;;;;;19.12;65.36;100575.91;5039538;28;498;-40
2021/06/12 00:13:37;;;;;;;;;;;;;;;19.35;64.62;100577.00;5039817;28;867;-40
2021/06/12 00:16:03;;;;;;;;;;;;;;;19.21;64.31;100570.53;5039400;28;1038;-40
2021/06/12 00:18:28;;;;;;;;;;;;;;;19.22;64.58;100572.19;5040099;28;2064;-58
2021/06/12 00:20:55;;;;;;;;;;;;;;;19.40;64.92;100579.66;5022024;28;1189;-40
2021/06/12 00:23:20;;;;;;;;;;;;;;;19.43;64.66;100568.06;5039282;28;847;-40
2021/06/12 00:25:46;;;;;;;;;;;;;;;19.35;64.84;100571.47;5039584;28;863;-58
2021/06/12 00:28:11;;;;;;;;;;;;;;;19.58;65.21;100569.75;5039489;28;887;-40
2021/06/12 00:30:37;;;;;;;;;;;;;;;19.49;65.83;100572.38;5038854;28;1007;-39
2021/06/12 00:33:02;;;;;;;;;;;;;;;19.82;64.97;100569.69;5039570;28;764;-59
2021/06/12 00:35:28;;;;;;;;;;;;;;;19.77;64.89;100575.25;5039411;28;693;-38
2021/06/12 00:37:53;;;;;;;;;;;;;;;19.66;64.50;100566.31;5021418;28;1903;-55
2021/06/12 00:40:19;;;;;;;;;;;;;;;19.76;64.39;100567.28;5039267;28;1108;-40
2021/06/12 00:42:45;;;;;;;;;;;;;;;19.79;64.42;100570.28;5039561;28;857;-40
2021/06/12 00:45:13;;;;;;;;;;;;;;;19.92;63.73;100570.63;5038725;28;1163;-40
2021/06/12 00:47:38;;;;;;;;;;;;;;;19.81;64.62;100573.56;5039167;28;840;-40
2021/06/12 00:50:04;;;;;;;;;;;;;;;19.72;65.03;100580.03;5039154;28;783;-42
2021/06/12 00:52:30;;;;;;;;;;;;;;;19.66;65.44;100576.53;5038595;28;779;-40
2021/06/12 00:54:55;;;;;;;;;;;;;;;19.75;65.11;100571.97;5039276;28;1037;-40
2021/06/12 00:57:21;;;;;;;;;;;;;;;19.89;63.88;100574.00;5037816;28;2018;-40
2021/06/12 00:59:46;;;;;;;;;;;;;;;19.92;63.50;100581.66;5037392;28;979;-40
2021/06/12 01:02:11;;;;;;;;;;;;;;;19.91;64.41;100577.25;5038657;28;824;-46
2021/06/12 01:04:37;;;;;;;;;;;;;;;19.79;64.35;100574.94;5038865;28;800;-40
2021/06/12 01:07:02;;;;;;;;;;;;;;;19.95;62.39;100573.63;5038800;28;779;-40
2021/06/12 01:09:28;;;;;;;;;;;;;;;19.87;62.35;100579.00;5039120;28;788;-40
2021/06/12 01:11:55;;;;;;;;;;;;;;;20.00;63.49;100584.56;5037913;28;804;-58
2021/06/12 01:14:21;;;;;;;;;;;;;;;19.80;64.59;100582.97;5038659;28;979;-40
2021/06/12 01:16:47;;;;;;;;;;;;;;;20.00;62.76;100575.47;5020862;28;1175;-58
2021/06/12 01:19:32;;;;;;;;;;;;;;;19.78;62.55;100579.66;5038571;28;1918;-40
2021/06/12 01:21:58;;;;;;;;;;;;;;;19.67;63.57;100580.94;5020644;28;789;-40
2021/06/12 01:24:30;;;;;;;;;;;;;;;19.70;64.86;100577.56;5021249;28;813;-40
2021/06/12 01:26:58;;;;;;;;;;;;;;;19.80;64.51;100579.38;5038169;28;836;-39
2021/06/12 01:29:42;;;;;;;;;;;;;;;20.06;63.74;100587.25;5038357;28;975;-49
2021/06/12 01:32:08;;;;;;;;;;;;;;;20.07;63.61;100586.13;5038202;28;828;-40
2021/06/12 01:34:33;;;;;;;;;;;;;;;19.89;64.22;100577.56;5020838;28;923;-55
2021/06/12 01:36:59;;;;;;;;;;;;;;;20.09;63.93;100581.09;5020499;28;844;-40
2021/06/12 01:39:25;;;;;;;;;;;;;;;20.07;64.28;100580.59;5037921;28;1910;-40
2021/06/12 01:41:51;;;;;;;;;;;;;;;20.15;63.87;100580.72;5037982;28;795;-40
2021/06/12 01:44:17;;;;;;;;;;;;;;;20.12;64.31;100583.28;5037916;28;1019;-58
2021/06/12 01:46:44;;;;;;;;;;;;;;;19.95;64.72;100581.06;5038508;28;806;-59
2021/06/12 01:49:09;;;;;;;;;;;;;;;20.09;62.85;100590.22;5036711;28;812;-40
2021/06/12 01:51:34;;;;;;;;;;;;;;;20.06;60.24;100577.00;5036696;28;733;-40
2021/06/12 01:54:00;;;;;;;;;;;;;;;19.81;57.97;100583.75;5036458;28;882;-40
2021/06/12 01:56:26;;;;;;;;;;;;;;;20.07;58.58;100592.44;5036900;28;732;-40
2021/06/12 01:58:51;;;;;;;;;;;;;;;20.28;60.35;100586.59;5020382;28;1910;-40
2021/06/12 02:01:17;;;;;;;;;;;;;;;20.17;61.28;100586.78;5037300;28;960;-59
2021/06/12 02:03:44;;;;;;;;;;;;;;;20.03;61.56;100588.66;5037682;28;828;-41
2021/06/12 02:06:09;;;;;;;;;;;;;;;20.11;61.41;100590.72;5003909;28;1219;-40
2021/06/12 02:08:35;;;;;;;;;;;;;;;20.32;61.32;100587.63;5038091;28;753;-40
2021/06/12 02:11:00;;;;;;;;;;;;;;;20.20;62.11;100590.84;5037609;28;784;-40
2021/06/12 02:13:26;;;;;;;;;;;;;;;20.15;61.42;100589.00;5037457;28;749;-40
2021/06/12 02:15:52;;;;;;;;;;;;;;;19.83;60.76;100582.34;5019521;28;964;-41
2021/06/12 02:18:18;;;;;;;;;;;;;;;20.00;60.38;100587.31;5036216;28;1914;-40
2021/06/12 02:20:44;;;;;;;;;;;;;;;20.03;62.28;100591.41;5037263;28;887;-48
2021/06/12 02:23:09;;;;;;;;;;;;;;;19.51;62.66;100590.56;5036476;28;531;-59
2021/06/12 02:25:35;;;;;;;;;;;;;;;19.74;63.15;100600.69;5036823;28;835;-40
2021/06/12 02:28:02;;;;;;;;;;;;;;;19.85;63.23;100608.84;5037401;28;792;-43
2021/06/12 02:30:28;;;;;;;;;;;;;;;19.89;62.75;100607.13;5036866;28;940;-39
2021/06/12 02:32:55;;;;;;;;;;;;;;;19.82;63.67;100608.31;5019764;28;848;-40
2021/06/12 02:35:21;;;;;;;;;;;;;;;19.88;63.92;100605.47;5019395;28;832;-39
2021/06/12 02:37:46;;;;;;;;;;;;;;;19.96;62.65;100602.88;5019395;28;1910;-40
2021/06/12 02:40:12;;;;;;;;;;;;;;;19.81;62.18;100609.44;5019378;28;1113;-39
2021/06/12 02:42:37;;;;;;;;;;;;;;;20.08;61.99;100604.34;5037528;28;795;-40
2021/06/12 02:45:03;;;;;;;;;;;;;;;20.09;63.15;100605.94;5036492;28;1004;-58
2021/06/12 02:47:29;;;;;;;;;;;;;;;20.00;63.29;100608.59;5037086;28;764;-50
2021/06/12 02:49:55;;;;;;;;;;;;;;;20.00;61.82;100603.88;5035776;28;847;-44
2021/06/12 02:52:25;;;;;;;;;;;;;;;19.90;59.51;100615.09;5037210;28;867;-50
2021/06/12 02:54:50;;;;;;;;;;;;;;;19.95;60.66;100617.78;5036691;28;744;-40
2021/06/12 02:57:16;;;;;;;;;;;;;;;19.88;62.79;100624.78;5035530;28;1913;-41
2021/06/12 02:59:43;;;;;;;;;;;;;;;19.94;63.56;100623.59;5036348;28;956;-56
2021/06/12 03:02:10;;;;;;;;;;;;;;;20.00;63.18;100631.47;5037178;28;799;-40
2021/06/12 03:04:36;;;;;;;;;;;;;;;19.82;62.20;100630.41;5018979;28;843;-40
2021/06/12 03:07:01;;;;;;;;;;;;;;;19.87;60.69;100637.78;5036463;28;764;-40
2021/06/12 03:09:28;;;;;;;;;;;;;;;20.01;61.40;100640.59;5018996;28;848;-58
2021/06/12 03:11:53;;;;;;;;;;;;;;;20.14;62.62;100644.53;5019053;28;814;-41
2021/06/12 03:14:19;;;;;;;;;;;;;;;20.05;62.08;100644.41;4998794;28;1040;-41
2021/06/12 03:16:45;;;;;;;;;;;;;;;20.05;59.36;100630.59;5016803;28;1006;-41
2021/06/12 03:19:11;;;;;;;;;;;;;;;19.83;57.31;100651.34;5016638;28;1918;-42
2021/06/12 03:21:37;;;;;;;;;;;;;;;20.07;59.69;100644.91;5015441;28;867;-42
2021/06/12 03:24:02;;;;;;;;;;;;;;;19.81;61.29;100645.31;5016852;28;787;-42
2021/06/12 03:26:28;;;;;;;;;;;;;;;19.87;63.15;100654.31;5015257;28;776;-41
2021/06/12 03:28:53;;;;;;;;;;;;;;;19.87;63.49;100648.00;5016510;28;1027;-42
2021/06/12 03:31:19;;;;;;;;;;;;;;;19.94;62.79;100653.97;5018715;28;811;-42
2021/06/12 03:33:45;;;;;;;;;;;;;;;19.88;62.87;100655.13;5018640;28;757;-41
2021/06/12 03:36:11;;;;;;;;;;;;;;;20.17;62.14;100655.78;5020673;28;844;-41
2021/06/12 03:38:36;;;;;;;;;;;;;;;20.10;61.84;100662.81;5022222;28;1918;-40
2021/06/12 03:41:03;;;;;;;;;;;;;;;20.16;60.66;100662.44;5040110;28;1105;-41
2021/06/12 03:43:28;;;;;;;;;;;;;;;20.09;60.22;100656.47;5040475;28;813;-40
2021/06/12 03:45:56;;;;;;;;;;;;;;;20.15;60.60;100658.03;5022540;28;932;-41
2021/06/12 03:48:22;;;;;;;;;;;;;;;20.12;61.49;100661.38;5038390;28;1105;-41
2021/06/12 03:50:48;;;;;;;;;;;;;;;20.04;61.89;100662.06;5009504;28;1321;-39
2021/06/12 03:53:13;;;;;;;;;;;;;;;20.18;62.05;100668.47;5034641;28;997;-42
2021/06/12 03:55:38;;;;;;;;;;;;;;;20.15;61.90;100671.81;5029354;28;803;-41
2021/06/12 03:58:04;;;;;;;;;;;;;;;19.92;60.44;100667.22;5020701;28;1989;-42
2021/06/12 04:00:30;;;;;;;;;;;;;;;20.11;56.88;100670.78;5033024;28;957;-42
2021/06/12 04:02:56;;;;;;;;;;;;;;;19.94;59.09;100662.25;5040224;28;752;-41
2021/06/12 04:05:23;;;;;;;;;;;;;;;19.90;61.42;100669.47;5040129;28;922;-40
2021/06/12 04:07:49;;;;;;;;;;;;;;;20.09;62.07;100666.69;5039894;28;910;-41
2021/06/12 04:10:14;;;;;;;;;;;;;;;20.14;62.23;100670.19;5040658;28;721;-39
2021/06/12 04:12:40;;;;;;;;;;;;;;;20.21;62.44;100669.81;5039969;28;784;-40
2021/06/12 04:15:05;;;;;;;;;;;;;;;20.18;62.93;100665.69;5039341;28;826;-39
2021/06/12 04:17:31;;;;;;;;;;;;;;;20.32;62.87;100675.97;5039656;28;1923;-39
2021/06/12 04:19:56;;;;;;;;;;;;;;;20.25;63.44;100681.06;5022062;28;877;-41
2021/06/12 04:22:22;;;;;;;;;;;;;;;20.32;63.09;100675.97;5022122;28;1229;-42
2021/06/12 04:24:47;;;;;;;;;;;;;;;20.30;62.13;100672.69;5039854;28;725;-44
2021/06/12 04:27:13;;;;;;;;;;;;;;;19.97;64.62;100678.19;5039648;28;772;-41
2021/06/12 04:29:38;;;;;;;;;;;;;;;20.09;64.05;100684.06;5039614;28;1027;-42
2021/06/12 04:32:04;;;;;;;;;;;;;;;20.26;62.47;100674.41;5039571;28;807;-41
2021/06/12 04:34:29;;;;;;;;;;;;;;;20.47;60.50;100672.16;5039792;28;748;-40
2021/06/12 04:36:55;;;;;;;;;;;;;;;20.54;60.37;100671.75;5039510;28;751;-40
2021/06/12 04:39:20;;;;;;;;;;;;;;;20.66;59.95;100672.09;5039205;28;1914;-41
2021/06/12 04:41:46;;;;;;;;;;;;;;;20.67;59.97;100670.97;5039347;28;870;-40
2021/06/12 04:44:11;;;;;;;;;;;;;;;20.67;60.20;100676.50;5021341;28;1019;-42
2021/06/12 04:46:37;;;;;;;;;;;;;;;20.81;60.29;100682.88;5038126;28;1490;-40
2021/06/12 04:49:02;;;;;;;;;;;;;;;20.81;61.34;100685.66;5039300;28;767;-40
2021/06/12 04:51:28;;;;;;;;;;;;;;;20.99;61.57;100688.66;5038113;28;1251;-41
2021/06/12 04:53:53;;;;;;;;;;;;;;;21.02;61.04;100683.31;5039068;28;740;-45
2021/06/12 04:56:19;;;;;;;;;;;;;;;21.02;58.88;100688.03;5039067;28;803;-44
2021/06/12 04:58:44;;;;;;;;;;;;;;;20.80;56.34;100692.31;5039137;28;1909;-44
2021/06/12 05:01:10;;;;;;;;;;;;;;;20.67;54.58;100695.84;5038989;28;963;-43
2021/06/12 05:03:36;;;;;;;;;;;;;;;20.28;54.11;100703.38;5038927;28;828;-44
2021/06/12 05:06:01;;;;;;;;;;;;;;;20.46;57.35;100701.69;5038608;28;803;-44
2021/06/12 05:08:26;;;;;;;;;;;;;;;20.59;59.59;100694.56;5038945;28;863;-43
2021/06/12 05:10:52;;;;;;;;;;;;;;;20.65;60.41;100706.34;5038826;28;863;-44
2021/06/12 05:13:17;;;;;;;;;;;;;;;20.69;59.66;100704.66;5038567;28;816;-59
2021/06/12 05:15:43;;;;;;;;;;;;;;;20.67;58.98;100702.19;5020391;28;1031;-43
2021/06/12 05:18:11;;;;;;;;;;;;;;;20.60;58.46;100698.97;5020696;28;1984;-43
2021/06/12 05:20:37;;;;;;;;;;;;;;;20.53;58.61;100709.59;5020923;28;1104;-60
2021/06/12 05:23:02;;;;;;;;;;;;;;;20.75;59.48;100711.75;5021197;28;1092;-43
2021/06/12 05:25:28;;;;;;;;;;;;;;;20.91;60.29;100719.75;5039143;28;720;-45
2021/06/12 05:27:54;;;;;;;;;;;;;;;20.58;61.68;100722.50;5038203;28;819;-58
2021/06/12 05:30:19;;;;;;;;;;;;;;;20.82;60.72;100728.75;5038220;28;1026;-45
2021/06/12 05:32:45;;;;;;;;;;;;;;;20.85;60.30;100733.66;5038319;28;804;-63
2021/06/12 05:35:10;;;;;;;;;;;;;;;20.79;60.53;100726.59;5038586;28;768;-44
2021/06/12 05:37:36;;;;;;;;;;;;;;;20.80;60.30;100731.00;5038156;28;1965;-46
2021/06/12 05:40:03;;;;;;;;;;;;;;;20.92;60.02;100738.81;5038161;28;1104;-44
2021/06/12 05:42:28;;;;;;;;;;;;;;;20.84;60.25;100742.25;5038065;28;752;-57
2021/06/12 05:44:54;;;;;;;;;;;;;;;20.78;60.34;100744.28;5037885;28;963;-43
2021/06/12 05:47:19;;;;;;;;;;;;;;;20.84;60.72;100762.41;5037837;28;871;-43
2021/06/12 05:49:45;;;;;;;;;;;;;;;21.02;60.18;100754.38;5038546;28;757;-57
2021/06/12 05:52:10;;;;;;;;;;;;;;;20.83;59.68;100766.31;5038067;28;800;-42
2021/06/12 05:54:35;;;;;;;;;;;;;;;20.62;58.33;100774.09;5037946;28;781;-46
2021/06/12 05:57:01;;;;;;;;;;;;;;;19.98;59.25;100766.22;5037992;28;877;-43
2021/06/12 05:59:26;;;;;;;;;;;;;;;20.48;57.03;100779.56;5037275;28;1914;-63
2021/06/12 06:01:52;;;;;;;;;;;;;;;20.23;57.56;100783.53;5037625;28;752;-43
2021/06/12 06:04:17;;;;;;;;;;;;;;;20.13;58.34;100780.91;5037735;28;772;-45
2021/06/12 06:06:43;;;;;;;;;;;;;;;19.94;59.61;100786.44;5037769;28;760;-45
2021/06/12 06:09:08;;;;;;;;;;;;;;;20.12;59.61;100782.84;5038097;28;799;-43
2021/06/12 06:11:34;;;;;;;;;;;;;;;20.20;59.55;100786.06;5037522;28;772;-43
2021/06/12 06:13:59;;;;;;;;;;;;;;;20.35;59.03;100786.66;5037421;28;959;-54
2021/06/12 06:16:25;;;;;;;;;;;;;;;20.62;58.34;100795.38;5037243;28;1100;-53
2021/06/12 06:18:50;;;;;;;;;;;;;;;20.57;58.53;100801.00;5037245;28;1973;-46
2021/06/12 06:21:18;;;;;;;;;;;;;;;20.47;58.88;100808.31;5038015;28;735;-42
2021/06/12 06:23:43;;;;;;;;;;;;;;;20.45;59.42;100812.47;5037619;28;764;-43
2021/06/12 06:26:09;;;;;;;;;;;;;;;20.39;60.78;100817.25;5037435;28;803;-43
2021/06/12 06:28:34;;;;;;;;;;;;;;;20.17;58.99;100813.16;5037223;28;835;-42
2021/06/12 06:30:59;;;;;;;;;;;;;;;20.16;57.56;100811.50;5036712;28;960;-55
2021/06/12 06:33:25;;;;;;;;;;;;;;;20.09;58.36;100824.03;5037278;28;796;-48
2021/06/12 06:35:51;;;;;;;;;;;;;;;19.78;60.33;100821.63;5037644;28;796;-43
2021/06/12 06:38:16;;;;;;;;;;;;;;;20.24;59.04;100825.75;5036717;28;1910;-55
2021/06/12 06:40:42;;;;;;;;;;;;;;;20.29;58.76;100831.22;5037232;28;1171;-43
2021/06/12 06:43:11;;;;;;;;;;;;;;;20.34;58.78;100829.22;5037183;28;823;-52
2021/06/12 06:45:36;;;;;;;;;;;;;;;20.34;58.71;100823.69;5037040;28;956;-43
2021/06/12 06:48:02;;;;;;;;;;;;;;;20.31;58.94;100828.97;5036987;28;752;-44
2021/06/12 06:50:27;;;;;;;;;;;;;;;20.21;59.72;100829.13;5037250;28;754;-41
2021/06/12 06:52:52;;;;;;;;;;;;;;;20.17;60.22;100839.94;5037222;28;771;-41
2021/06/12 06:55:18;;;;;;;;;;;;;;;20.27;60.06;100841.72;5036928;28;974;-57
2021/06/12 06:57:43;;;;;;;;;;;;;;;20.39;59.33;100846.84;5030868;28;1910;-40
2021/06/12 07:00:09;;;;;;;;;;;;;;;20.44;59.13;100850.34;5035606;28;810;-42
2021/06/12 07:02:35;;;;;;;;;;;;;;;20.35;59.19;100852.13;5036811;28;859;-41
2021/06/12 07:05:00;;;;;;;;;;;;;;;20.45;58.91;100851.97;5036674;28;800;-41
2021/06/12 07:07:25;;;;;;;;;;;;;;;20.40;59.35;100853.97;5036681;28;1012;-40
2021/06/12 07:09:52;;;;;;;;;;;;;;;20.48;59.26;100842.25;5036529;28;816;-42
2021/06/12 07:12:18;;;;;;;;;;;;;;;20.56;58.66;100852.63;5036461;28;962;-43
2021/06/12 07:14:44;;;;;;;;;;;;;;;20.62;58.56;100839.56;5036844;28;984;-41
2021/06/12 07:17:10;;;;;;;;;;;;;;;20.60;58.71;100839.88;5036392;28;1155;-44
2021/06/12 07:19:35;;;;;;;;;;;;;;;20.51;58.90;100845.25;5036498;28;1906;-54
2021/06/12 07:22:01;;;;;;;;;;;;;;;20.41;59.15;100847.34;5019359;28;780;-43
2021/06/12 07:24:26;;;;;;;;;;;;;;;20.47;58.74;100844.22;5036527;28;779;-58
2021/06/12 07:26:51;;;;;;;;;;;;;;;20.47;58.79;100844.22;5036471;28;768;-43
2021/06/12 07:29:17;;;;;;;;;;;;;;;20.44;58.23;100844.81;5035988;28;1007;-40
2021/06/12 07:31:42;;;;;;;;;;;;;;;20.25;59.48;100842.03;5036288;28;804;-42
2021/06/12 07:34:08;;;;;;;;;;;;;;;20.14;58.99;100841.34;5036403;28;764;-58
2021/06/12 07:36:34;;;;;;;;;;;;;;;20.37;59.08;100840.78;5018919;28;1211;-42
2021/06/12 07:38:59;;;;;;;;;;;;;;;20.54;59.79;100831.97;5036345;28;2046;-57
2021/06/12 07:41:25;;;;;;;;;;;;;;;20.62;59.04;100842.34;5036202;28;768;-49
2021/06/12 07:43:50;;;;;;;;;;;;;;;20.30;59.07;100838.38;5036338;28;768;-43
2021/06/12 07:46:15;;;;;;;;;;;;;;;20.37;57.19;100838.84;5036140;28;1019;-57
2021/06/12 07:48:41;;;;;;;;;;;;;;;20.13;54.96;100836.97;5036154;28;792;-40
2021/06/12 07:51:07;;;;;;;;;;;;;;;20.12;54.78;100831.72;5036393;28;788;-59
2021/06/12 07:53:32;;;;;;;;;;;;;;;20.22;57.55;100830.78;5036049;28;847;-40
2021/06/12 07:55:58;;;;;;;;;;;;;;;20.17;59.13;100828.88;5036738;28;826;-53
2021/06/12 07:58:24;;;;;;;;;;;;;;;20.15;58.93;100823.66;5036262;28;1973;-39
2021/06/12 08:00:49;;;;;;;;;;;;;;;20.13;57.03;100817.63;5035697;28;1023;-41
2021/06/12 08:03:14;;;;;;;;;;;;;;;20.24;56.96;100811.97;5036141;28;752;-40
2021/06/12 08:05:40;;;;;;;;;;;;;;;20.26;59.36;100804.19;5036462;28;812;-40
2021/06/12 08:08:05;;;;;;;;;;;;;;;20.32;59.40;100811.28;5035893;28;808;-39
2021/06/12 08:10:31;;;;;;;;;;;;;;;20.39;57.92;100802.66;5018293;28;1125;-39
2021/06/12 08:12:56;;;;;;;;;;;;;;;19.99;56.05;100802.91;5036075;28;733;-38
2021/06/12 08:15:23;;;;;;;;;;;;;;;19.99;56.34;100791.84;5035701;28;971;-38
2021/06/12 08:17:49;;;;;;;;;;;;;;;20.14;58.22;100797.16;5022380;28;1965;-38
2021/06/12 08:20:14;;;;;;;;;;;;;;;20.15;59.76;100795.25;5015873;28;847;-40
2021/06/12 08:22:41;;;;;;;;;;;;;;;20.21;59.48;100801.50;5018431;28;1293;-39
2021/06/12 08:25:08;;;;;;;;;;;;;;;20.26;58.58;100795.91;5019941;28;791;-38
2021/06/12 08:27:34;;;;;;;;;;;;;;;20.16;57.62;100791.34;5020192;28;784;-39
2021/06/12 08:29:59;;;;;;;;;;;;;;;20.31;57.35;100790.31;5019599;28;1011;-39
2021/06/12 08:32:25;;;;;;;;;;;;;;;19.94;60.65;100795.50;5019818;28;795;-39
2021/06/12 08:34:50;;;;;;;;;;;;;;;20.25;60.68;100788.75;5019683;28;813;-40
2021/06/12 08:37:16;;;;;;;;;;;;;;;20.34;60.98;100796.06;5019710;28;749;-39
2021/06/12 08:39:41;;;;;;;;;;;;;;;20.27;60.97;100797.56;5011523;28;1914;-41
2021/06/12 08:42:07;;;;;;;;;;;;;;;20.17;60.31;100796.59;4999780;28;753;-39
2021/06/12 08:44:33;;;;;;;;;;;;;;;20.14;58.45;100797.16;4982841;28;992;-38
2021/06/12 08:46:58;;;;;;;;;;;;;;;20.23;58.17;100794.59;5000216;28;769;-41
2021/06/12 08:49:24;;;;;;;;;;;;;;;20.28;59.88;100791.72;4999984;28;729;-41
2021/06/12 08:51:49;;;;;;;;;;;;;;;20.44;60.22;100788.75;4999651;28;740;-39
2021/06/12 08:54:18;;;;;;;;;;;;;;;20.21;60.19;100784.94;5000008;28;744;-39
2021/06/12 08:56:45;;;;;;;;;;;;;;;20.15;57.63;100781.44;4999872;28;765;-40
2021/06/12 08:59:11;;;;;;;;;;;;;;;20.04;55.11;100782.72;4999377;28;1918;-39
2021/06/12 09:01:36;;;;;;;;;;;;;;;20.09;57.15;100788.13;4999191;28;872;-53
2021/06/12 09:04:02;;;;;;;;;;;;;;;20.04;59.59;100789.03;4999729;28;854;-56
2021/06/12 09:06:27;;;;;;;;;;;;;;;20.12;60.51;100785.63;4999563;28;725;-41
2021/06/12 09:08:52;;;;;;;;;;;;;;;20.31;59.81;100790.31;4999258;28;809;-40
2021/06/12 09:11:18;;;;;;;;;;;;;;;20.24;59.49;100795.38;4999701;28;800;-39
2021/06/12 09:13:44;;;;;;;;;;;;;;;20.36;59.86;100787.50;4982036;28;801;-39
2021/06/12 09:16:23;;;;;;;;;;;;;;;20.32;60.88;100797.50;5017233;28;1101;-42
2021/06/12 09:18:48;;;;;;;;;;;;;;;20.44;60.60;100797.88;5018901;28;1977;-41
2021/06/12 09:21:23;;;;;;;;;;;;;;;20.31;60.29;100806.88;5018894;28;757;-40
2021/06/12 09:23:48;;;;;;;;;;;;;;;20.37;59.24;100802.94;5018687;28;852;-40
2021/06/12 09:26:14;;;;;;;;;;;;;;;20.38;58.82;100807.31;5019016;28;856;-39
2021/06/12 09:28:49;;;;;;;;;;;;;;;20.23;59.06;100805.63;5018614;28;741;-57
2021/06/12 09:31:16;;;;;;;;;;;;;;;20.18;58.90;100814.78;5018384;28;952;-40
2021/06/12 09:33:41;;;;;;;;;;;;;;;20.18;58.94;100812.03;5018103;28;844;-40
2021/06/12 09:36:07;;;;;;;;;;;;;;;20.21;60.66;100810.59;5018698;28;730;-57
2021/06/12 09:38:32;;;;;;;;;;;;;;;20.45;61.19;100810.53;5018221;28;1906;-40
2021/06/12 09:40:58;;;;;;;;;;;;;;;20.47;60.85;100805.53;5000066;28;1275;-41
2021/06/12 09:43:27;;;;;;;;;;;;;;;20.50;59.82;100804.94;4998681;28;804;-58
2021/06/12 09:45:52;;;;;;;;;;;;;;;20.40;58.84;100812.53;4998202;28;893;-58
2021/06/12 09:48:18;;;;;;;;;;;;;;;20.34;58.63;100812.63;4998820;28;816;-58
2021/06/12 09:50:44;;;;;;;;;;;;;;;20.34;58.48;100803.53;4998416;28;807;-46
2021/06/12 09:53:14;;;;;;;;;;;;;;;20.42;57.83;100791.81;4999003;28;765;-57
2021/06/12 09:55:39;;;;;;;;;;;;;;;20.35;57.92;100783.88;4998600;28;807;-43
2021/06/12 09:58:05;;;;;;;;;;;;;;;20.46;57.78;100783.75;4998295;28;1902;-41
2021/06/12 10:00:47;;;;;;;;;;;;;;;20.39;57.98;100772.25;5011215;28;1020;-57
2021/06/12 10:03:19;;;;;;;;;;;;;;;20.35;58.40;100772.03;5017943;28;943;-41
2021/06/12 10:05:45;;;;;;;;;;;;;;;20.25;58.76;100772.19;5017992;28;772;-48
2021/06/12 10:08:11;;;;;;;;;;;;;;;20.37;58.49;100771.72;5017973;28;752;-42
2021/06/12 10:10:37;;;;;;;;;;;;;;;20.36;58.42;100762.63;5016816;28;720;-55
2021/06/12 10:13:05;;;;;;;;;;;;;;;20.38;58.26;100752.09;4999797;28;1169;-53
2021/06/12 10:15:31;;;;;;;;;;;;;;;20.39;58.29;100748.22;5016594;28;963;-39
2021/06/12 10:17:56;;;;;;;;;;;;;;;20.28;58.71;100747.53;5000176;28;1906;-42
2021/06/12 10:20:22;;;;;;;;;;;;;;;20.45;58.43;100740.66;5016612;28;776;-56
2021/06/12 10:22:50;;;;;;;;;;;;;;;20.40;58.24;100738.81;5017628;28;745;-58
2021/06/12 10:25:15;;;;;;;;;;;;;;;20.43;58.20;100735.44;5018006;28;817;-42
2021/06/12 10:27:41;;;;;;;;;;;;;;;20.54;57.85;100738.03;5017603;28;816;-39
2021/06/12 10:30:07;;;;;;;;;;;;;;;20.49;58.19;100733.44;5017581;28;964;-50
2021/06/12 10:32:33;;;;;;;;;;;;;;;20.45;58.28;100722.16;5017475;28;819;-58
2021/06/12 10:35:02;;;;;;;;;;;;;;;20.06;58.94;100719.72;5016407;28;959;-56
2021/06/12 10:37:27;;;;;;;;;;;;;;;20.20;59.95;100719.81;5016640;28;748;-48
2021/06/12 10:39:55;;;;;;;;;;;;;;;20.50;60.77;100716.53;5007703;28;1965;-39
2021/06/12 10:42:21;;;;;;;;;;;;;;;20.46;61.14;100711.94;4980230;28;1465;-52
2021/06/12 10:44:47;;;;;;;;;;;;;;;20.58;60.04;100706.75;4996590;28;1023;-39
2021/06/12 10:47:13;;;;;;;;;;;;;;;20.59;57.72;100705.63;4997614;28;804;-39
2021/06/12 10:49:39;;;;;;;;;;;;;;;20.54;54.63;100693.84;4997491;28;876;-58
2021/06/12 10:52:05;;;;;;;;;;;;;;;20.29;55.80;100698.69;4997272;28;764;-40
2021/06/12 10:54:33;;;;;;;;;;;;;;;20.39;59.04;100703.22;4980367;28;1127;-57
2021/06/12 10:57:02;;;;;;;;;;;;;;;20.44;60.36;100694.84;4997536;28;771;-58
2021/06/12 10:59:37;;;;;;;;;;;;;;;20.57;60.69;100687.72;4996992;28;1918;-41
2021/06/12 11:02:05;;;;;;;;;;;;;;;20.38;59.72;100674.75;4997227;28;808;-58
2021/06/12 11:05:04;;;;;;;;;;;;;;;20.36;57.08;100671.50;4997431;28;773;-40
2021/06/12 11:07:41;;;;;;;;;;;;;;;20.08;55.36;100676.91;4975421;28;1340;-58
2021/06/12 11:10:09;;;;;;;;;;;;;;;20.14;56.63;100681.22;4997258;28;817;-56
2021/06/12 11:12:36;;;;;;;;;;;;;;;20.29;59.86;100671.88;4997316;28;757;-41
2021/06/12 11:15:11;;;;;;;;;;;;;;;20.47;60.63;100667.44;5006255;28;1468;-58
2021/06/12 11:17:37;;;;;;;;;;;;;;;20.55;60.67;100662.34;5016537;28;1910;-40
2021/06/12 11:20:02;;;;;;;;;;;;;;;20.68;59.50;100667.94;5016473;28;776;-51
2021/06/12 11:22:35;;;;;;;;;;;;;;;20.48;59.50;100662.72;5016557;28;901;-41
2021/06/12 11:25:01;;;;;;;;;;;;;;;20.40;59.34;100667.00;5016725;28;744;-41
2021/06/12 11:27:27;;;;;;;;;;;;;;;20.54;58.60;100668.97;5016729;28;827;-41
2021/06/12 11:30:11;;;;;;;;;;;;;;;20.72;58.89;100670.91;5016590;28;1032;-41
2021/06/12 11:32:37;;;;;;;;;;;;;;;20.73;60.53;100669.78;5015292;28;796;-41
2021/06/12 11:35:03;;;;;;;;;;;;;;;20.78;61.49;100672.44;5016556;28;839;-40
2021/06/12 11:37:29;;;;;;;;;;;;;;;20.58;62.86;100675.53;5015534;28;737;-40
2021/06/12 11:39:58;;;;;;;;;;;;;;;20.82;62.75;100673.47;5006772;28;1914;-52
2021/06/12 11:42:42;;;;;;;;;;;;;;;20.83;63.03;100668.75;4997297;28;807;-55
2021/06/12 11:45:17;;;;;;;;;;;;;;;20.94;62.91;100669.41;4996769;28;968;-55
2021/06/12 11:47:42;;;;;;;;;;;;;;;20.82;63.11;100662.41;4996663;28;785;-50
2021/06/12 11:50:21;;;;;;;;;;;;;;;20.85;61.61;100670.09;4996811;28;729;-53
2021/06/12 11:52:46;;;;;;;;;;;;;;;20.75;59.66;100672.22;4997034;28;737;-40
2021/06/12 11:55:21;;;;;;;;;;;;;;;20.67;56.83;100677.34;4996627;28;682;-41
2021/06/12 11:57:48;;;;;;;;;;;;;;;20.53;54.85;100668.16;5000335;28;1910;-41
2021/06/12 12:00:22;;;;;;;;;;;;;;;20.43;54.11;100671.94;5000453;28;1018;-40
2021/06/12 12:02:56;;;;;;;;;;;;;;;20.50;57.85;100672.34;5000609;28;792;-49
2021/06/12 12:05:21;;;;;;;;;;;;;;;20.49;60.37;100667.94;5000707;28;720;-41
2021/06/12 12:07:47;;;;;;;;;;;;;;;20.45;61.56;100664.16;4999358;28;504;-39
2021/06/12 12:10:12;;;;;;;;;;;;;;;20.53;61.15;100654.34;5000479;28;733;-40
2021/06/12 12:12:38;;;;;;;;;;;;;;;20.57;60.05;100646.28;4999439;28;788;-47
2021/06/12 12:15:04;;;;;;;;;;;;;;;20.61;58.42;100644.56;5009173;28;961;-44
2021/06/12 12:17:29;;;;;;;;;;;;;;;20.56;57.40;100637.16;5020008;28;1041;-43
2021/06/12 12:20:04;;;;;;;;;;;;;;;20.45;57.88;100642.06;5019900;28;1914;-39
2021/06/12 12:22:35;;;;;;;;;;;;;;;20.43;59.00;100646.25;5020057;28;839;-43
2021/06/12 12:25:01;;;;;;;;;;;;;;;20.47;59.28;100639.81;5019806;28;804;-40
2021/06/12 12:27:26;;;;;;;;;;;;;;;20.51;59.63;100646.38;5020062;28;936;-49
2021/06/12 12:29:51;;;;;;;;;;;;;;;20.45;60.38;100636.53;5019386;28;972;-56
2021/06/12 12:32:23;;;;;;;;;;;;;;;20.58;61.02;100639.63;5019819;28;880;-39
2021/06/12 12:34:49;;;;;;;;;;;;;;;20.73;62.19;100631.09;5019575;28;772;-55
2021/06/12 12:37:18;;;;;;;;;;;;;;;20.47;61.66;100634.28;5018399;28;868;-39
2021/06/12 12:39:45;;;;;;;;;;;;;;;20.38;62.14;100629.78;5011327;28;1977;-39
2021/06/12 12:42:17;;;;;;;;;;;;;;;20.42;60.87;100633.56;4999940;28;800;-39
2021/06/12 12:44:43;;;;;;;;;;;;;;;20.38;59.41;100630.59;4999713;28;1012;-41
2021/06/12 12:47:08;;;;;;;;;;;;;;;20.17;59.19;100624.59;4999789;28;792;-46
2021/06/12 12:49:37;;;;;;;;;;;;;;;20.38;57.97;100627.00;4999745;28;737;-48
2021/06/12 12:52:04;;;;;;;;;;;;;;;20.29;58.12;100632.41;4999917;28;833;-42